Time;durP1;ratioP1;P1;durP2;ratioP2;P2;SDS_P1;SDS_P2;PMS_P1;PMS_P2;Temp;Humidity;BMP_temperature;BMP_pressure;BME280_temperature;BME280_humidity;BME280_pressure;Samples;Min_cycle;Max_cycle;Signal;HPM_P1;HPM_P2
2022/06/28 00:01:44;;;;;;;24.33;12.40;;;;;;;16.37;82.09;101662.44;4993545;28;20018;-75
2022/06/28 00:04:11;;;;;;;19.95;13.02;;;;;;;16.41;81.73;101663.78;4994482;28;20026;-76
2022/06/28 00:06:37;;;;;;;15.55;11.68;;;;;;;16.35;81.35;101669.94;5010721;28;20113;-76
2022/06/28 00:09:03;;;;;;;17.63;12.20;;;;;;;16.44;81.52;101685.31;4992992;28;20069;-76
2022/06/28 00:11:28;;;;;;;21.05;12.10;;;;;;;16.47;81.29;101684.94;4992234;28;20022;-77
2022/06/28 00:13:54;;;;;;;25.27;14.23;;;;;;;16.39;81.07;101687.72;4993625;28;20356;-74
2022/06/28 00:16:19;;;;;;;19.80;12.77;;;;;;;16.47;81.07;101687.66;4993224;28;20018;-76
2022/06/28 00:18:45;;;;;;;15.27;11.65;;;;;;;16.48;81.26;101692.09;4992925;28;20065;-76
2022/06/28 00:21:11;;;;;;;19.15;12.68;;;;;;;16.59;80.40;101693.59;4994095;28;20030;-75
2022/06/28 00:23:39;;;;;;;27.55;13.23;;;;;;;16.58;80.55;101691.06;4992876;28;20032;-75
2022/06/28 00:26:07;;;;;;;26.85;14.88;;;;;;;16.44;81.07;101674.38;4992796;28;20032;-74
2022/06/28 00:28:32;;;;;;;20.67;15.20;;;;;;;16.61;80.55;101674.28;4993736;28;20025;-76
2022/06/28 00:30:57;;;;;;;23.15;15.13;;;;;;;16.75;79.65;101665.34;4992916;28;20064;-77
2022/06/28 00:33:23;;;;;;;19.83;13.93;;;;;;;16.69;79.97;101666.91;4993363;28;20080;-75
2022/06/28 00:35:48;;;;;;;29.55;16.60;;;;;;;16.73;79.45;101672.88;4993876;28;20026;-77
2022/06/28 00:38:14;;;;;;;20.65;15.35;;;;;;;16.66;79.32;101666.41;5010541;28;20033;-77
2022/06/28 00:40:45;;;;;;;25.77;17.17;;;;;;;16.62;79.72;101675.97;4993688;28;20032;-75
2022/06/28 00:43:11;;;;;;;25.40;16.25;;;;;;;16.58;79.93;101674.66;4993818;28;20090;-77
2022/06/28 00:45:37;;;;;;;20.77;15.73;;;;;;;16.63;79.66;101680.44;4993031;28;20068;-76
2022/06/28 00:48:03;;;;;;;24.25;18.25;;;;;;;16.78;79.31;101686.88;4993293;28;20022;-75
2022/06/28 00:50:32;;;;;;;19.02;16.27;;;;;;;16.69;79.41;101698.84;4993263;28;20088;-76
2022/06/28 00:52:59;;;;;;;27.02;18.65;;;;;;;16.76;79.03;101699.91;4993521;28;20025;-77
2022/06/28 00:55:25;;;;;;;27.05;19.25;;;;;;;16.83;78.88;101692.69;4992742;28;20053;-75
2022/06/28 00:57:50;;;;;;;28.65;18.92;;;;;;;16.93;78.23;101690.56;4990482;28;20018;-76
2022/06/28 01:00:16;;;;;;;25.10;18.50;;;;;;;16.80;79.02;101695.75;4991124;28;20037;-76
2022/06/28 01:02:41;;;;;;;32.40;18.60;;;;;;;16.92;78.41;101683.38;4991512;28;20022;-76
2022/06/28 01:05:07;;;;;;;26.02;20.02;;;;;;;17.09;77.89;101679.50;4990718;28;20022;-76
2022/06/28 01:07:34;;;;;;;33.75;20.10;;;;;;;16.96;78.03;101692.94;4991118;28;20022;-75
2022/06/28 01:10:00;;;;;;;30.63;21.02;;;;;;;16.92;78.62;101697.06;4990005;28;20133;-75
2022/06/28 01:12:25;;;;;;;44.67;24.38;;;;;;;16.76;78.96;101705.38;4990187;28;20129;-76
2022/06/28 01:14:50;;;;;;;36.13;21.42;;;;;;;16.79;78.75;101715.94;4990981;28;20021;-76
2022/06/28 01:17:16;;;;;;;41.90;26.13;;;;;;;16.37;80.64;101722.56;4990686;28;20114;-74
2022/06/28 01:19:41;;;;;;;44.25;25.20;;;;;;;16.41;80.43;101707.50;4991245;28;20125;-76
2022/06/28 01:22:10;;;;;;;36.28;23.77;;;;;;;16.58;79.79;101702.00;4990414;28;20029;-77
2022/06/28 01:24:35;;;;;;;43.58;25.48;;;;;;;16.78;78.92;101692.34;4990295;28;20022;-76
2022/06/28 01:27:01;;;;;;;43.47;24.88;;;;;;;16.65;79.46;101703.84;4991542;28;20029;-77
2022/06/28 01:29:27;;;;;;;43.15;24.05;;;;;;;16.49;80.01;101702.00;4990233;28;20053;-74
2022/06/28 01:31:53;;;;;;;41.30;24.20;;;;;;;16.45;80.31;101703.41;4991638;28;20022;-76
2022/06/28 01:34:19;;;;;;;34.22;22.90;;;;;;;16.44;80.32;101701.69;4991247;28;20014;-77
2022/06/28 01:36:44;;;;;;;37.80;23.15;;;;;;;16.33;80.52;101699.34;4993574;28;20401;-76
2022/06/28 01:39:10;;;;;;;41.50;25.30;;;;;;;16.21;80.93;101707.06;4995348;28;20021;-76
2022/06/28 01:41:36;;;;;;;38.47;25.00;;;;;;;16.12;81.27;101697.19;4986470;28;20053;-76
2022/06/28 01:44:07;;;;;;;45.67;25.73;;;;;;;16.06;81.42;101702.50;4989968;28;20017;-76
2022/06/28 01:46:35;;;;;;;;;;;;;;;15.93;81.91;101709.34;5007837;28;20034;-76
2022/06/28 01:49:00;;;;;;;42.63;23.58;;;;;;;15.99;81.39;101714.13;4990920;28;19909;-76
2022/06/28 01:51:26;;;;;;;44.72;24.73;;;;;;;15.97;81.53;101721.63;4989861;28;20036;-76
2022/06/28 01:53:51;;;;;;;44.55;26.88;;;;;;;16.00;81.33;101732.22;4991825;28;20028;-75
2022/06/28 01:56:17;;;;;;;51.17;25.10;;;;;;;16.15;81.02;101734.22;5015573;28;20025;-76
2022/06/28 01:58:43;;;;;;;38.05;21.50;;;;;;;16.27;80.44;101732.84;4997802;28;20033;-77
2022/06/28 02:01:08;;;;;;;33.83;21.52;;;;;;;16.05;81.29;101736.31;4998468;28;20065;-76
2022/06/28 02:03:34;;;;;;;41.85;22.90;;;;;;;16.32;80.54;101741.38;4989197;28;20029;-76
2022/06/28 02:05:59;;;;;;;38.20;20.00;;;;;;;16.35;79.88;101743.75;4995184;28;20030;-73
2022/06/28 02:08:25;;;;;;;36.17;20.00;;;;;;;16.10;81.37;101755.75;4994378;28;20049;-76
2022/06/28 02:10:50;;;;;;;28.05;18.13;;;;;;;16.13;81.00;101747.22;4994009;28;20021;-76
2022/06/28 02:13:16;;;;;;;30.08;18.27;;;;;;;16.16;81.24;101744.13;4994479;28;20037;-76
2022/06/28 02:20:01;;;;;;;32.40;18.30;;;;;;;16.23;80.90;101726.84;5023482;23;20137;-76
2022/06/28 02:23:18;;;;;;;35.83;20.45;;;;;;;16.15;80.92;101718.69;4974152;28;20047;-76
2022/06/28 02:25:56;;;;;;;37.78;21.60;;;;;;;16.20;81.02;101709.97;4971762;28;20018;-77
2022/06/28 02:28:31;;;;;;;40.05;24.05;;;;;;;16.22;80.67;101710.63;5082358;23;20099;-78
2022/06/28 02:31:06;;;;;;;41.63;23.55;;;;;;;16.23;80.88;101715.06;5012243;28;20057;-76
2022/06/28 02:43:55;;;;;;;54.00;29.52;;;;;;;16.60;79.42;101735.47;5028529;28;20064;-77
2022/06/28 02:46:39;;;;;;;53.65;30.35;;;;;;;16.72;78.79;101725.88;5018211;28;20025;-75
2022/06/28 02:49:42;;;;;;;47.38;28.02;;;;;;;16.66;78.93;101726.56;5013092;28;20021;-78
2022/06/28 02:56:05;;;;;;;37.17;25.00;;;;;;;16.69;78.85;101716.13;4926277;29;20581;-76
2022/06/28 02:58:44;;;;;;;46.92;27.65;;;;;;;16.73;78.25;101722.13;4998887;23;20033;-77
2022/06/28 03:01:44;;;;;;;49.72;30.73;;;;;;;16.43;79.24;101719.13;4999591;28;20022;-76
2022/06/28 03:04:54;;;;;;;45.88;26.40;;;;;;;16.61;79.21;101724.34;5020765;28;20026;-77
2022/06/28 03:07:38;;;;;;;43.50;26.13;;;;;;;16.62;78.85;101731.50;5014582;28;20089;-74
2022/06/28 03:10:15;;;;;;;48.13;25.98;;;;;;;16.77;78.57;101728.94;5011642;28;20018;-76
2022/06/28 03:13:27;;;;;;;43.95;26.17;;;;;;;16.64;78.58;101734.09;5024720;28;20049;-77
2022/06/28 03:16:28;;;;;;;49.83;28.83;;;;;;;16.52;79.24;101720.81;5003408;28;20025;-77
2022/06/28 03:21:40;;;;;;;47.30;28.65;;;;;;;16.53;79.16;101738.91;4987231;28;20061;-75
2022/06/28 03:24:06;;;;;;;51.20;27.75;;;;;;;16.55;78.76;101739.56;4972162;28;20026;-76
2022/06/28 03:26:31;;;;;;;48.28;29.13;;;;;;;16.55;78.60;101742.31;4976821;28;20126;-75
2022/06/28 03:28:57;;;;;;;54.20;29.83;;;;;;;16.46;78.90;101745.25;4986340;28;20461;-75
2022/06/28 03:31:22;;;;;;;47.55;27.50;;;;;;;16.32;79.94;101763.22;4983055;28;20033;-76
2022/06/28 03:33:48;;;;;;;51.03;29.15;;;;;;;16.47;79.25;101761.47;4989979;28;20030;-75
2022/06/28 03:36:13;;;;;;;53.85;31.73;;;;;;;16.18;80.38;101767.53;4981835;28;20073;-75
2022/06/28 03:38:39;;;;;;;54.90;32.22;;;;;;;16.08;81.23;101771.47;5001354;28;20014;-75
2022/06/28 03:41:04;;;;;;;51.38;31.35;;;;;;;16.17;80.89;101776.75;4986333;28;20026;-75
2022/06/28 03:43:29;;;;;;;58.00;30.58;;;;;;;16.08;80.98;101775.03;4984354;28;20029;-76
2022/06/28 03:45:56;;;;;;;54.58;29.45;;;;;;;16.28;80.52;101779.13;4986917;28;20040;-75
2022/06/28 03:48:21;;;;;;;47.08;28.75;;;;;;;16.15;81.11;101781.53;4989665;28;20018;-76
2022/06/28 03:50:46;;;;;;;43.35;26.65;;;;;;;16.27;80.94;101784.75;4991021;28;20075;-76
2022/06/28 03:53:12;;;;;;;43.72;26.13;;;;;;;16.24;80.73;101793.31;5008909;28;20092;-76
2022/06/28 03:55:37;;;;;;;38.67;24.73;;;;;;;16.15;81.31;101802.53;4992259;28;20030;-76
2022/06/28 03:58:02;;;;;;;43.70;24.88;;;;;;;16.09;81.54;101800.47;4991910;28;20073;-75
2022/06/28 04:00:27;;;;;;;38.85;23.80;;;;;;;16.26;80.72;101796.72;4984530;28;20424;-75
2022/06/28 04:02:53;;;;;;;25.00;18.98;;;;;;;16.39;80.46;101810.72;5004152;28;20014;-76
2022/06/28 04:05:18;;;;;;;29.05;19.42;;;;;;;16.47;80.19;101821.63;4971309;28;20045;-76
2022/06/28 04:07:43;;;;;;;38.33;20.48;;;;;;;16.67;79.87;101826.72;4991433;28;20431;-76
2022/06/28 04:10:09;;;;;;;40.97;21.80;;;;;;;16.68;79.42;101822.94;4989286;28;20048;-77
2022/06/28 04:12:34;;;;;;;29.50;19.30;;;;;;;16.74;79.63;101822.28;4974957;28;20046;-76
2022/06/28 04:14:59;;;;;;;29.08;18.17;;;;;;;16.82;79.08;101830.44;4978565;28;20037;-77
2022/06/28 04:17:25;;;;;;;31.35;18.10;;;;;;;16.84;79.52;101833.03;5006288;28;20029;-76
2022/06/28 04:19:50;;;;;;;23.98;15.82;;;;;;;17.07;78.58;101842.16;4986133;28;20025;-76
2022/06/28 04:22:15;;;;;;;27.75;14.57;;;;;;;17.05;78.37;101842.34;4974610;28;20068;-75
2022/06/28 04:24:41;;;;;;;26.80;16.58;;;;;;;17.17;78.38;101828.28;4968611;28;20030;-76
2022/06/28 04:27:06;;;;;;;21.33;14.85;;;;;;;17.26;78.01;101833.53;4977937;28;20021;-75
2022/06/28 04:29:32;;;;;;;23.83;15.07;;;;;;;17.32;77.63;101831.94;4990206;28;20390;-76
2022/06/28 04:31:57;;;;;;;28.45;14.88;;;;;;;17.23;77.29;101844.00;4982721;28;20117;-77
2022/06/28 04:34:22;;;;;;;22.52;15.18;;;;;;;17.03;78.55;101849.88;4987276;28;20026;-76
2022/06/28 04:36:48;;;;;;;21.85;15.57;;;;;;;16.96;78.67;101854.34;4994673;28;20026;-76
2022/06/28 04:39:13;;;;;;;31.98;16.25;;;;;;;17.05;78.61;101857.91;4980779;28;20217;-76
2022/06/28 04:41:39;;;;;;;23.67;15.70;;;;;;;17.20;78.69;101860.75;4994619;28;20018;-75
2022/06/28 04:44:04;;;;;;;22.30;15.25;;;;;;;17.20;78.53;101855.28;4991626;28;20037;-75
2022/06/28 04:46:29;;;;;;;28.58;16.95;;;;;;;17.20;78.75;101860.75;4990567;28;20038;-76
2022/06/28 04:48:55;;;;;;;38.97;15.52;;;;;;;17.38;77.96;101864.09;4981975;28;20033;-76
2022/06/28 04:51:20;;;;;;;25.73;16.90;;;;;;;17.33;77.33;101866.50;4987275;28;20050;-76
2022/06/28 04:53:47;;;;;;;24.48;16.52;;;;;;;17.16;77.98;101864.88;4990807;28;20026;-75
2022/06/28 04:56:14;;;;;;;34.28;16.67;;;;;;;17.40;77.49;101862.00;4992882;28;20018;-75
2022/06/28 04:58:39;;;;;;;21.52;14.35;;;;;;;17.42;76.72;101864.59;4994124;28;20022;-76
2022/06/28 05:01:05;;;;;;;32.35;17.33;;;;;;;17.39;75.66;101860.31;5006266;28;20052;-75
2022/06/28 05:03:31;;;;;;;23.55;17.83;;;;;;;17.23;75.99;101860.41;4992143;28;20025;-75
2022/06/28 05:05:57;;;;;;;25.67;16.25;;;;;;;17.17;76.64;101864.72;5020056;23;20053;-75
2022/06/28 05:08:22;;;;;;;24.77;16.98;;;;;;;17.20;76.79;101866.22;5003988;28;20040;-75
2022/06/28 05:10:47;;;;;;;23.58;16.42;;;;;;;17.22;76.45;101858.72;4983539;28;20467;-75
2022/06/28 05:13:13;;;;;;;30.42;18.20;;;;;;;17.24;76.23;101867.59;4986683;28;20081;-75
2022/06/28 05:15:38;;;;;;;24.55;18.08;;;;;;;17.23;76.21;101865.88;4991390;28;20033;-74
2022/06/28 05:18:03;;;;;;;21.77;16.70;;;;;;;17.10;77.83;101863.72;4984867;28;20032;-74
2022/06/28 05:20:29;;;;;;;26.90;17.83;;;;;;;17.30;76.31;101866.88;5030878;28;20167;-72
2022/06/28 05:22:54;;;;;;;22.60;16.98;;;;;;;17.28;77.43;101869.81;5011373;28;20036;-76
2022/06/28 05:25:19;;;;;;;23.13;16.80;;;;;;;17.28;77.35;101868.94;5009313;28;20036;-75
2022/06/28 05:27:45;;;;;;;31.67;18.02;;;;;;;17.24;77.08;101868.44;5029712;28;20048;-77
2022/06/28 05:30:11;;;;;;;27.95;20.40;;;;;;;17.17;76.72;101861.13;5038532;28;20017;-78
2022/06/28 05:32:37;;;;;;;34.30;21.60;;;;;;;17.08;77.00;101863.91;5032821;28;20014;-75
2022/06/28 05:35:03;;;;;;;31.75;21.17;;;;;;;17.28;76.76;101863.47;5012389;28;20052;-74
2022/06/28 05:37:28;;;;;;;30.98;22.20;;;;;;;17.25;76.37;101861.94;5028197;28;20025;-76
2022/06/28 05:39:54;;;;;;;31.52;22.55;;;;;;;17.28;76.36;101858.00;5007934;28;20025;-73
2022/06/28 05:42:19;;;;;;;38.25;23.13;;;;;;;17.22;76.51;101858.72;5022967;28;20020;-74
2022/06/28 05:44:44;;;;;;;33.78;24.98;;;;;;;16.99;77.11;101859.47;5002372;28;20033;-74
2022/06/28 05:47:11;;;;;;;33.17;23.48;;;;;;;16.93;77.26;101860.16;5028061;28;20437;-74
2022/06/28 05:49:37;;;;;;;34.30;23.27;;;;;;;17.03;76.93;101844.41;5008933;28;20053;-74
2022/06/28 05:52:02;;;;;;;26.38;22.58;;;;;;;17.19;77.03;101842.63;5006528;28;20060;-74
2022/06/28 05:54:27;;;;;;;34.38;24.33;;;;;;;16.96;77.30;101846.16;5019095;28;20132;-74
2022/06/28 05:56:53;;;;;;;32.92;24.02;;;;;;;17.15;77.26;101857.69;5013078;28;20025;-74
2022/06/28 05:59:18;;;;;;;36.15;25.25;;;;;;;17.01;77.02;101857.41;5026623;28;20485;-73
2022/06/28 06:01:44;;;;;;;37.92;26.08;;;;;;;16.81;77.41;101861.56;5008295;28;20037;-73
2022/06/28 06:04:09;;;;;;;36.95;26.65;;;;;;;16.79;77.08;101852.69;5022905;28;20021;-75
2022/06/28 06:06:34;;;;;;;34.63;22.48;;;;;;;16.82;76.28;101849.59;5010048;28;20029;-75
2022/06/28 06:09:00;;;;;;;31.30;20.83;;;;;;;17.26;75.90;101849.09;5011318;28;20022;-76
2022/06/28 06:11:25;;;;;;;29.75;21.52;;;;;;;17.19;74.83;101845.38;5010284;28;20029;-76
2022/06/28 06:13:51;;;;;;;28.75;18.25;;;;;;;17.51;75.43;101847.94;5026209;28;20021;-76
2022/06/28 06:16:16;;;;;;;21.02;16.30;;;;;;;17.58;74.02;101843.44;5013813;28;20427;-75
2022/06/28 06:18:42;;;;;;;23.58;14.00;;;;;;;17.52;72.87;101843.31;5026855;28;20060;-75
2022/06/28 06:21:08;;;;;;;26.92;13.43;;;;;;;17.55;71.85;101843.81;5010141;28;20029;-76
2022/06/28 06:23:34;;;;;;;18.05;12.55;;;;;;;17.33;73.18;101847.34;5008142;28;20022;-74
2022/06/28 06:26:01;;;;;;;17.05;12.55;;;;;;;17.41;72.66;101863.75;5010341;28;20033;-76
2022/06/28 06:28:26;;;;;;;19.83;11.93;;;;;;;17.64;72.36;101861.88;5017538;28;20144;-70
2022/06/28 06:30:52;;;;;;;14.68;10.43;;;;;;;18.09;71.78;101854.75;5033087;28;20093;-72
2022/06/28 06:33:17;;;;;;;16.60;10.88;;;;;;;18.85;69.22;101846.53;5017641;28;20053;-73
2022/06/28 06:35:43;;;;;;;20.73;10.18;;;;;;;18.82;68.73;101847.72;5013220;28;20033;-70
2022/06/28 06:38:08;;;;;;;16.38;10.38;;;;;;;18.80;68.29;101854.47;5027073;28;20029;-70
2022/06/28 06:40:33;;;;;;;14.35;10.93;;;;;;;18.04;69.90;101870.88;5031036;28;20025;-71
2022/06/28 06:42:59;;;;;;;18.33;10.75;;;;;;;17.43;72.78;101872.63;5020040;28;20028;-69
2022/06/28 06:45:24;;;;;;;19.88;11.00;;;;;;;17.59;72.79;101867.03;5009413;28;20108;-69
2022/06/28 06:47:49;;;;;;;20.08;12.43;;;;;;;17.39;72.48;101887.69;5030789;28;20013;-70
2022/06/28 06:50:15;;;;;;;25.17;12.13;;;;;;;17.24;73.88;101878.53;4994224;28;20167;-69
2022/06/28 06:52:40;;;;;;;17.50;12.05;;;;;;;17.41;73.88;101885.66;5000189;28;20009;-71
2022/06/28 06:55:07;;;;;;;18.63;12.20;;;;;;;17.05;74.26;101891.59;5015163;28;20025;-69
2022/06/28 06:57:32;;;;;;;13.10;9.73;;;;;;;17.18;73.79;101880.09;5001349;28;20017;-69
2022/06/28 06:59:58;;;;;;;16.90;10.93;;;;;;;16.89;74.31;101897.13;5002225;28;20018;-69
2022/06/28 07:02:23;;;;;;;16.90;10.23;;;;;;;17.06;75.13;101893.31;4996480;28;20484;-71
2022/06/28 07:04:48;;;;;;;18.73;9.88;;;;;;;17.01;75.02;101895.69;5028013;28;20028;-69
2022/06/28 07:07:14;;;;;;;16.13;9.52;;;;;;;17.13;73.95;101903.53;5013152;28;20033;-69
2022/06/28 07:09:39;;;;;;;15.30;9.68;;;;;;;17.13;73.69;101898.06;5007724;28;20110;-69
2022/06/28 07:12:05;;;;;;;14.00;9.93;;;;;;;17.59;72.21;101904.53;5007294;28;20014;-70
2022/06/28 07:14:31;;;;;;;18.08;8.82;;;;;;;17.67;71.89;101900.91;5010822;28;20032;-70
2022/06/28 07:16:56;;;;;;;18.77;9.40;;;;;;;17.80;70.83;101901.19;5019107;28;20029;-70
2022/06/28 07:19:21;;;;;;;12.98;9.70;;;;;;;17.44;71.08;101912.66;5009285;28;20029;-70
2022/06/28 07:21:47;;;;;;;17.42;9.32;;;;;;;17.62;71.33;101910.53;5007699;28;20017;-70
2022/06/28 07:24:13;;;;;;;14.63;8.25;;;;;;;17.59;70.58;101916.34;5016449;28;20025;-70
2022/06/28 07:26:39;;;;;;;15.15;7.65;;;;;;;17.74;70.62;101912.91;5019556;28;20053;-70
2022/06/28 07:29:05;;;;;;;13.20;7.28;;;;;;;17.73;69.40;101928.47;5009855;28;20177;-71
2022/06/28 07:31:30;;;;;;;12.95;7.68;;;;;;;17.88;69.15;101925.81;5009573;28;20052;-71
2022/06/28 07:33:59;;;;;;;14.48;7.72;;;;;;;18.23;67.04;101923.53;5013549;28;20029;-71
2022/06/28 07:36:25;;;;;;;14.93;7.15;;;;;;;18.56;67.23;101918.63;5008548;28;20107;-71
2022/06/28 07:38:50;;;;;;;10.82;6.35;;;;;;;18.92;65.08;101918.81;5028732;28;20104;-71
2022/06/28 07:41:16;;;;;;;12.07;5.88;;;;;;;18.80;63.81;101914.84;5019536;28;20119;-71
2022/06/28 07:43:41;;;;;;;12.48;5.57;;;;;;;19.11;63.57;101922.91;5031067;28;20047;-71
2022/06/28 07:46:07;;;;;;;10.55;5.68;;;;;;;19.05;63.18;101930.00;5006789;28;20132;-71
2022/06/28 07:48:32;;;;;;;14.82;5.43;;;;;;;18.55;64.91;101926.00;5010985;28;20051;-72
2022/06/28 07:53:42;;;;;;;13.95;5.50;;;;;;;17.87;66.52;101930.47;5021893;28;20028;-71
2022/06/28 07:56:07;;;;;;;13.68;5.50;;;;;;;18.17;66.37;101931.44;5006927;28;20033;-71
2022/06/28 07:58:33;;;;;;;15.40;5.90;;;;;;;18.03;65.98;101928.63;5026856;28;20071;-71
2022/06/28 08:00:59;;;;;;;12.20;5.85;;;;;;;18.37;64.46;101928.19;5012380;28;20027;-71
2022/06/28 08:03:24;;;;;;;22.55;6.05;;;;;;;18.41;64.61;101932.28;5011294;28;20021;-71
2022/06/28 08:05:50;;;;;;;10.23;5.35;;;;;;;19.34;61.28;101928.28;5005072;28;20022;-71
2022/06/28 08:08:15;;;;;;;11.93;5.13;;;;;;;19.93;60.61;101923.56;5007782;28;20070;-71
2022/06/28 08:10:40;;;;;;;9.15;4.45;;;;;;;19.60;60.62;101934.16;5022432;28;20018;-71
2022/06/28 08:13:06;;;;;;;11.55;4.80;;;;;;;19.95;59.10;101937.09;5022833;28;20104;-71
2022/06/28 08:15:31;;;;;;;7.75;3.63;;;;;;;19.26;58.17;101937.47;5024490;28;20028;-71
2022/06/28 08:17:57;;;;;;;8.30;3.05;;;;;;;19.42;58.56;101930.94;5046923;23;20058;-76
2022/06/28 08:20:22;;;;;;;10.93;4.18;;;;;;;19.61;57.86;101924.03;4972323;28;20065;-76
2022/06/28 08:22:48;;;;;;;4.50;2.63;;;;;;;19.69;56.67;101922.03;4994624;28;20030;-76
2022/06/28 08:25:13;;;;;;;7.57;2.42;;;;;;;19.95;54.72;101934.34;4967446;28;20159;-77
2022/06/28 08:30:07;;;;;;;4.97;1.92;;;;;;;20.32;54.37;101931.38;4982902;28;20049;-73
2022/06/28 08:32:32;;;;;;;3.83;2.28;;;;;;;19.88;54.25;101942.53;4986429;28;20029;-73
2022/06/28 08:34:57;;;;;;;11.70;2.40;;;;;;;19.16;56.68;101940.50;4987079;28;20021;-75
2022/06/28 08:37:23;;;;;;;4.80;1.80;;;;;;;18.92;55.05;101935.28;4969960;28;20022;-73
2022/06/28 08:39:48;;;;;;;5.35;1.90;;;;;;;19.08;53.19;101937.84;4979708;28;20545;-73
2022/06/28 08:42:19;;;;;;;5.00;1.80;;;;;;;19.74;53.56;101930.53;4973799;28;20026;-73
2022/06/28 08:44:47;;;;;;;6.45;2.30;;;;;;;20.28;51.79;101938.34;4965055;28;20482;-74
2022/06/28 08:47:14;;;;;;;22.92;2.58;;;;;;;20.59;51.72;101945.41;4971974;28;20029;-74
2022/06/28 08:49:57;;;;;;;9.80;2.70;;;;;;;20.25;52.60;101949.72;4984298;28;20021;-73
2022/06/28 08:52:23;;;;;;;5.18;2.72;;;;;;;19.75;54.09;101951.47;4986273;28;20049;-75
2022/06/28 08:54:50;;;;;;;6.85;2.25;;;;;;;19.43;53.05;101960.09;4985184;28;20029;-74
2022/06/28 08:57:21;;;;;;;7.75;2.63;;;;;;;19.75;52.79;101948.72;4981879;28;20040;-74
2022/06/28 08:59:48;;;;;;;4.90;2.17;;;;;;;20.63;50.15;101952.22;4983420;28;20017;-75
2022/06/28 09:02:14;;;;;;;8.63;2.35;;;;;;;20.90;48.53;101942.28;4963951;28;20039;-74
2022/06/28 09:04:45;;;;;;;7.22;2.00;;;;;;;21.02;47.69;101945.34;4990164;28;20431;-75
2022/06/28 09:07:10;;;;;;;11.20;2.38;;;;;;;20.28;48.01;101949.34;4994470;28;20595;-74
2022/06/28 09:09:35;;;;;;;8.05;2.17;;;;;;;19.93;48.63;101955.72;4971813;28;20033;-73
2022/06/28 09:12:02;;;;;;;5.03;1.75;;;;;;;20.49;48.29;101939.41;4975834;28;20514;-74
2022/06/28 09:14:30;;;;;;;10.52;2.10;;;;;;;21.12;46.14;101943.06;4989630;28;20029;-73
2022/06/28 09:16:57;;;;;;;4.93;1.67;;;;;;;21.51;44.47;101944.38;4991090;28;20041;-73
2022/06/28 09:19:38;;;;;;;5.05;1.63;;;;;;;21.16;45.81;101941.63;4988301;28;20546;-74
2022/06/28 09:22:04;;;;;;;6.95;2.20;;;;;;;21.04;45.60;101944.06;4970034;28;20018;-74
2022/06/28 09:24:30;;;;;;;6.38;1.80;;;;;;;21.13;45.08;101944.78;4973416;28;20028;-73
2022/06/28 09:27:02;;;;;;;6.35;1.90;;;;;;;21.23;42.88;101942.50;4991923;28;20033;-72
2022/06/28 09:29:28;;;;;;;6.55;1.60;;;;;;;21.26;40.85;101953.13;4983900;28;20030;-73
2022/06/28 09:31:53;;;;;;;3.80;1.17;;;;;;;21.34;42.24;101944.72;4993202;28;20025;-74
2022/06/28 09:34:18;;;;;;;3.45;1.35;;;;;;;21.49;41.58;101944.59;4973325;28;20022;-73
2022/06/28 09:36:56;;;;;;;4.53;1.30;;;;;;;21.85;41.05;101933.31;4978756;28;20097;-73
2022/06/28 09:39:26;;;;;;;5.55;1.65;;;;;;;22.35;41.09;101936.63;4971132;28;20482;-73
2022/06/28 09:41:53;;;;;;;8.48;1.67;;;;;;;21.63;42.06;101949.09;4996547;28;20041;-72
2022/06/28 09:44:26;;;;;;;5.57;1.30;;;;;;;21.16;43.16;101940.75;4973090;28;20030;-72
2022/06/28 09:46:54;;;;;;;6.25;1.60;;;;;;;21.19;44.11;101941.22;4991933;28;20029;-73
2022/06/28 09:49:20;;;;;;;8.95;2.38;;;;;;;21.26;43.16;101935.75;4974948;28;20017;-73
2022/06/28 09:51:46;;;;;;;5.53;1.40;;;;;;;21.23;43.80;101942.50;4982991;28;20050;-72
2022/06/28 09:54:11;;;;;;;8.20;1.70;;;;;;;21.53;43.16;101942.28;4992276;28;20022;-73
2022/06/28 09:56:39;;;;;;;4.32;1.30;;;;;;;21.56;41.95;101952.88;4998424;28;20022;-72
2022/06/28 09:59:06;;;;;;;4.03;1.65;;;;;;;21.48;42.78;101939.28;4999865;28;20053;-72
2022/06/28 10:01:32;;;;;;;5.70;1.60;;;;;;;21.21;44.90;101949.28;4972337;28;20025;-73
2022/06/28 10:03:58;;;;;;;6.43;1.55;;;;;;;21.38;44.08;101946.00;4977984;28;20030;-72
2022/06/28 10:06:24;;;;;;;5.97;1.83;;;;;;;21.66;43.33;101947.84;4992428;28;20014;-72
2022/06/28 10:08:50;;;;;;;7.72;3.20;;;;;;;22.12;41.57;101941.69;4971400;28;20041;-74
2022/06/28 10:11:16;;;;;;;3.30;1.20;;;;;;;21.46;41.07;101946.91;4948141;28;20133;-73
2022/06/28 10:16:54;;;;;;;5.35;1.17;;;;;;;22.35;40.76;101936.63;4985940;28;20037;-73
2022/06/28 10:19:21;;;;;;;6.53;1.42;;;;;;;23.18;40.67;101931.50;4976185;28;20032;-75
2022/06/28 10:21:52;;;;;;;6.10;1.20;;;;;;;22.39;40.87;101942.56;4987640;28;20401;-73
2022/06/28 10:24:19;;;;;;;5.70;1.17;;;;;;;21.86;41.56;101937.75;4978986;28;20118;-73
2022/06/28 10:27:14;;;;;;;5.78;1.30;;;;;;;22.28;41.89;101921.97;4992914;28;20122;-73
2022/06/28 10:29:58;;;;;;;7.40;1.30;;;;;;;22.59;41.63;101931.53;4968342;28;20053;-73
2022/06/28 10:32:42;;;;;;;5.03;1.30;;;;;;;22.44;41.77;101929.84;4989076;28;20014;-74
2022/06/28 10:35:07;;;;;;;2.97;0.98;;;;;;;22.12;41.14;101941.69;4968063;28;20122;-74
2022/06/28 10:37:32;;;;;;;5.18;1.13;;;;;;;21.73;42.19;101942.38;4997247;28;20101;-73
2022/06/28 10:40:23;;;;;;;2.22;1.45;;;;;;;21.95;41.82;101936.50;4976581;28;20018;-71
2022/06/28 10:42:50;;;;;;;4.18;1.55;;;;;;;22.22;41.83;101931.06;4966547;28;20018;-72
2022/06/28 10:45:16;;;;;;;5.13;1.40;;;;;;;22.81;39.98;101941.28;4963108;28;20022;-74
2022/06/28 10:48:08;;;;;;;5.07;1.10;;;;;;;22.96;39.71;101932.84;4985713;28;20030;-72
2022/06/28 10:50:56;;;;;;;6.57;1.83;;;;;;;23.33;38.89;101922.13;4980411;28;20073;-72
2022/06/28 10:53:21;;;;;;;4.32;1.20;;;;;;;24.43;38.12;101915.41;4976458;28;20030;-73
2022/06/28 10:56:14;;;;;;;6.38;1.33;;;;;;;23.80;38.40;101920.91;4996506;28;20038;-72
2022/06/28 10:58:59;;;;;;;4.50;1.55;;;;;;;24.05;38.46;101916.28;4988811;28;20108;-72
2022/06/28 11:01:40;;;;;;;4.90;1.63;;;;;;;24.77;36.96;101921.50;4972209;28;20118;-72
2022/06/28 11:04:23;;;;;;;3.57;1.57;;;;;;;24.90;37.06;101918.63;4979477;28;20081;-71
2022/06/28 11:07:04;;;;;;;3.00;1.40;;;;;;;24.68;37.91;101920.13;4978185;28;20029;-72
2022/06/28 11:09:47;;;;;;;4.00;1.30;;;;;;;24.18;38.13;101917.25;4969975;28;20505;-72
2022/06/28 11:12:13;;;;;;;5.82;1.30;;;;;;;24.45;38.77;101916.06;4966998;28;20079;-72
2022/06/28 11:14:54;;;;;;;6.75;1.17;;;;;;;24.32;38.02;101921.63;4995813;28;20022;-72
2022/06/28 11:17:28;;;;;;;3.73;1.30;;;;;;;23.40;39.59;101929.31;4961717;28;20024;-72
2022/06/28 11:20:00;;;;;;;4.03;1.08;;;;;;;24.38;36.64;101909.69;4974647;28;20054;-72
2022/06/28 11:22:37;;;;;;;2.60;1.20;;;;;;;25.01;35.79;101906.78;4974726;28;20026;-72
2022/06/28 11:25:05;;;;;;;8.38;1.50;;;;;;;24.30;37.72;101929.31;4983299;28;20026;-72
2022/06/28 11:27:32;;;;;;;5.03;1.55;;;;;;;23.15;39.42;101914.53;4982791;28;20024;-72
2022/06/28 11:30:00;;;;;;;4.05;1.38;;;;;;;23.75;39.26;101920.72;4977770;28;20032;-72
2022/06/28 11:32:39;;;;;;;4.82;1.75;;;;;;;23.72;37.44;101905.41;4984467;28;20105;-72
2022/06/28 11:35:20;;;;;;;5.50;1.77;;;;;;;24.12;36.36;101904.31;4985300;28;20055;-72
2022/06/28 11:37:50;;;;;;;6.50;1.50;;;;;;;23.41;37.91;101921.88;4987224;28;20418;-71
2022/06/28 11:40:22;;;;;;;6.57;1.40;;;;;;;23.05;38.17;101908.59;4983540;28;20090;-72
2022/06/28 11:43:01;;;;;;;2.65;1.30;;;;;;;23.56;38.02;101917.78;4977660;28;20018;-72
2022/06/28 11:45:30;;;;;;;4.50;1.35;;;;;;;24.58;36.74;101899.31;4982409;28;20227;-71
2022/06/28 11:47:56;;;;;;;2.08;1.08;;;;;;;24.47;35.50;101901.97;4970485;28;20041;-71
2022/06/28 11:50:22;;;;;;;4.03;1.45;;;;;;;24.60;35.80;101912.94;4986835;28;20018;-71